Time;durP1;ratioP1;P1;durP2;ratioP2;P2;SDS_P1;SDS_P2;PMS_P1;PMS_P2;Temp;Humidity;BMP_temperature;BMP_pressure;BME280_temperature;BME280_humidity;BME280_pressure;Samples;Min_cycle;Max_cycle;Signal;HPM_P1;HPM_P2
2022/03/17 00:01:26;;;;;;;;;;;;;;;5.96;82.50;95838.72;5076387;28;1028;-48
2022/03/17 00:03:52;;;;;;;;;;;;;;;5.93;82.22;95835.41;5076462;28;1056;-48
2022/03/17 00:06:18;;;;;;;;;;;;;;;5.92;81.91;95831.91;5075052;28;1906;-48
2022/03/17 00:08:44;;;;;;;;;;;;;;;5.72;83.08;95840.50;5076367;28;1059;-48
2022/03/17 00:11:10;;;;;;;;;;;;;;;5.81;82.66;95830.06;5076501;28;1172;-48
2022/03/17 00:13:36;;;;;;;;;;;;;;;5.84;82.37;95828.97;5076130;28;1098;-48
2022/03/17 00:16:02;;;;;;;;;;;;;;;5.83;82.18;95837.91;5076067;28;1115;-48
2022/03/17 00:18:28;;;;;;;;;;;;;;;5.81;82.68;95831.88;5075111;28;1082;-48
2022/03/17 00:20:54;;;;;;;;;;;;;;;5.70;82.98;95827.34;5075982;28;1086;-48
2022/03/17 00:23:22;;;;;;;;;;;;;;;5.73;82.46;95832.44;5076208;28;1052;-48
2022/03/17 00:25:48;;;;;;;;;;;;;;;5.77;82.07;95828.59;5076009;28;1992;-49
2022/03/17 00:28:14;;;;;;;;;;;;;;;5.68;82.52;95830.13;5074827;28;1875;-48
2022/03/17 00:30:40;;;;;;;;;;;;;;;5.70;82.13;95832.66;5076197;28;987;-48
2022/03/17 00:33:06;;;;;;;;;;;;;;;5.72;82.14;95840.50;5075973;28;1005;-48
2022/03/17 00:35:35;;;;;;;;;;;;;;;5.79;81.48;95844.41;5076037;28;1032;-49
2022/03/17 00:38:08;;;;;;;;;;;;;;;5.74;81.73;95838.59;5075601;28;1000;-48
2022/03/17 00:40:41;;;;;;;;;;;;;;;5.53;82.96;95836.56;5075896;28;1015;-48
2022/03/17 00:43:08;;;;;;;;;;;;;;;5.54;83.51;95832.97;5075195;28;1397;-48
2022/03/17 00:45:35;;;;;;;;;;;;;;;5.67;82.92;95831.09;5075755;28;1914;-48
2022/03/17 00:48:02;;;;;;;;;;;;;;;5.62;82.16;95840.34;5075566;28;968;-48
2022/03/17 00:50:29;;;;;;;;;;;;;;;5.39;82.82;95834.94;5075544;28;1259;-48
2022/03/17 00:52:55;;;;;;;;;;;;;;;5.36;83.39;95826.34;5075631;28;1207;-48
2022/03/17 00:55:21;;;;;;;;;;;;;;;5.51;82.85;95821.72;5075858;28;1043;-49
2022/03/17 00:57:48;;;;;;;;;;;;;;;5.65;82.39;95830.38;5075236;28;1091;-49
2022/03/17 01:00:14;;;;;;;;;;;;;;;5.66;82.89;95829.38;5075574;28;992;-48
2022/03/17 01:02:41;;;;;;;;;;;;;;;5.70;82.34;95831.81;5074376;28;1092;-48
2022/03/17 01:05:07;;;;;;;;;;;;;;;5.69;81.18;95836.25;5075277;28;1886;-49
2022/03/17 01:07:34;;;;;;;;;;;;;;;5.56;81.26;95833.69;5075166;28;1037;-48
2022/03/17 01:10:00;;;;;;;;;;;;;;;5.69;81.64;95830.97;5075250;28;1036;-48
2022/03/17 01:12:26;;;;;;;;;;;;;;;5.76;81.55;95829.53;5074951;28;1048;-48
2022/03/17 01:14:52;;;;;;;;;;;;;;;5.71;82.04;95833.50;5074087;28;1057;-48
2022/03/17 01:17:18;;;;;;;;;;;;;;;5.48;81.53;95836.03;5075012;28;1036;-48
2022/03/17 01:19:44;;;;;;;;;;;;;;;5.36;82.11;95837.81;5075038;28;988;-48
2022/03/17 01:22:11;;;;;;;;;;;;;;;5.43;81.88;95840.88;5075195;28;1033;-48
2022/03/17 01:24:37;;;;;;;;;;;;;;;5.42;82.76;95833.84;5074960;28;1996;-49
2022/03/17 01:27:03;;;;;;;;;;;;;;;5.41;83.16;95834.84;5074780;28;1028;-48
2022/03/17 01:29:29;;;;;;;;;;;;;;;5.46;83.49;95830.88;5074983;28;1099;-48
2022/03/17 01:31:56;;;;;;;;;;;;;;;5.52;83.24;95834.03;5074657;28;1115;-48
2022/03/17 01:34:22;;;;;;;;;;;;;;;5.61;82.85;95838.66;5074785;28;1087;-48
2022/03/17 01:36:48;;;;;;;;;;;;;;;5.60;82.28;95835.16;5074790;28;1108;-48
2022/03/17 01:39:14;;;;;;;;;;;;;;;5.63;81.99;95836.72;5075028;28;1032;-48
2022/03/17 01:41:40;;;;;;;;;;;;;;;5.58;81.94;95844.19;5074399;28;1247;-48
2022/03/17 01:44:06;;;;;;;;;;;;;;;5.52;81.82;95834.88;5074300;28;1032;-48
2022/03/17 01:47:26;;;;;;;;;;;;;;;5.59;82.04;95836.09;5074648;28;1910;-48
2022/03/17 01:49:18;;;;;;;;;;;;;;;5.64;82.05;95833.13;5074440;28;1597;-48
2022/03/17 01:51:48;;;;;;;;;;;;;;;5.63;82.51;95819.03;5074374;28;1221;-48
2022/03/17 01:54:16;;;;;;;;;;;;;;;5.50;81.73;95820.88;5074291;28;1185;-48
2022/03/17 01:56:42;;;;;;;;;;;;;;;5.22;82.67;95822.06;5074352;28;1011;-48
2022/03/17 01:59:08;;;;;;;;;;;;;;;5.11;83.60;95830.81;5074204;28;1015;-48
2022/03/17 02:01:34;;;;;;;;;;;;;;;5.16;83.80;95831.31;5074255;28;1044;-48
2022/03/17 02:04:00;;;;;;;;;;;;;;;5.37;83.02;95826.25;5074320;28;1027;-48
2022/03/17 02:06:26;;;;;;;;;;;;;;;5.49;82.46;95824.50;5074383;28;2031;-48
2022/03/17 02:08:52;;;;;;;;;;;;;;;5.52;82.81;95824.28;5074137;28;1034;-49
2022/03/17 02:14:03;;;;;;;;;;;;;;;5.52;82.60;95829.59;5073382;28;1028;-49
2022/03/17 02:16:30;;;;;;;;;;;;;;;5.49;81.87;95832.44;5074264;28;1032;-48
2022/03/17 02:18:58;;;;;;;;;;;;;;;5.47;82.33;95832.56;5073927;28;1035;-49
2022/03/17 02:21:24;;;;;;;;;;;;;;;5.58;82.25;95841.53;5074373;28;1040;-49
2022/03/17 02:26:34;;;;;;;;;;;;;;;5.25;83.66;95838.59;5073670;28;1910;-49
2022/03/17 02:29:00;;;;;;;;;;;;;;;5.31;83.17;95839.09;5073991;28;957;-48
2022/03/17 02:31:26;;;;;;;;;;;;;;;5.49;82.08;95840.41;5073949;28;1016;-48
2022/03/17 02:33:52;;;;;;;;;;;;;;;5.54;82.84;95842.72;5073660;28;1014;-48
2022/03/17 02:36:18;;;;;;;;;;;;;;;5.55;83.09;95849.72;5073690;28;1025;-48
2022/03/17 02:38:44;;;;;;;;;;;;;;;5.48;82.33;95849.31;5073466;28;1052;-48
2022/03/17 02:41:21;;;;;;;;;;;;;;;5.58;81.95;95850.34;5073228;28;1235;-49
2022/03/17 02:43:51;;;;;;;;;;;;;;;5.68;81.76;95856.66;5073392;28;980;-48
2022/03/17 02:46:18;;;;;;;;;;;;;;;5.61;82.53;95857.22;5073483;28;1903;-48
2022/03/17 02:48:44;;;;;;;;;;;;;;;5.65;81.94;95858.69;5073328;28;1091;-48
2022/03/17 02:51:11;;;;;;;;;;;;;;;5.56;82.77;95860.22;5072243;28;1166;-48
2022/03/17 02:53:37;;;;;;;;;;;;;;;5.58;83.00;95865.44;5073317;28;1052;-48
2022/03/17 02:56:03;;;;;;;;;;;;;;;5.45;83.23;95863.66;5073271;28;1056;-48
2022/03/17 02:58:31;;;;;;;;;;;;;;;5.46;83.35;95867.16;5073438;28;1032;-48
2022/03/17 03:00:57;;;;;;;;;;;;;;;5.46;83.42;95868.03;5073272;28;1085;-48
2022/03/17 03:03:24;;;;;;;;;;;;;;;5.52;82.62;95865.84;5073142;28;1087;-48
2022/03/17 03:05:50;;;;;;;;;;;;;;;5.46;83.00;95872.44;5073297;28;1987;-48
2022/03/17 03:08:16;;;;;;;;;;;;;;;5.44;83.38;95863.75;5073128;28;976;-48
2022/03/17 03:10:42;;;;;;;;;;;;;;;5.52;83.27;95866.72;5071932;28;961;-48
2022/03/17 03:13:10;;;;;;;;;;;;;;;5.68;82.17;95863.78;5072897;28;1075;-48
2022/03/17 03:15:36;;;;;;;;;;;;;;;5.65;82.68;95864.84;5073134;28;1021;-48
2022/03/17 03:18:02;;;;;;;;;;;;;;;5.57;83.64;95866.38;5073395;28;1009;-48
2022/03/17 03:20:28;;;;;;;;;;;;;;;5.55;83.89;95861.16;5073106;28;1025;-48
2022/03/17 03:22:54;;;;;;;;;;;;;;;5.53;83.38;95860.44;5073030;28;1103;-48
2022/03/17 03:25:20;;;;;;;;;;;;;;;5.53;83.15;95863.09;5073993;28;1898;-48
2022/03/17 03:27:46;;;;;;;;;;;;;;;5.55;83.03;95865.63;5077424;28;1008;-48
2022/03/17 03:30:13;;;;;;;;;;;;;;;5.72;82.28;95877.66;5077198;28;1015;-48
2022/03/17 03:32:40;;;;;;;;;;;;;;;5.73;82.70;95874.03;5077303;28;1036;-48
2022/03/17 03:37:51;;;;;;;;;;;;;;;5.67;83.35;95881.50;5077021;28;1037;-48
2022/03/17 03:40:17;;;;;;;;;;;;;;;5.53;83.33;95873.69;5076997;28;1028;-48
2022/03/17 03:42:43;;;;;;;;;;;;;;;5.60;83.19;95880.25;5075556;28;1105;-49
2022/03/17 03:45:10;;;;;;;;;;;;;;;5.43;84.04;95878.00;5076763;28;1907;-49
2022/03/17 03:47:36;;;;;;;;;;;;;;;5.50;83.98;95883.69;5076991;28;1214;-48
2022/03/17 03:50:02;;;;;;;;;;;;;;;5.58;83.91;95886.66;5076657;28;1017;-48
2022/03/17 03:52:28;;;;;;;;;;;;;;;5.66;83.53;95886.91;5077128;28;1213;-48
2022/03/17 03:54:54;;;;;;;;;;;;;;;5.83;82.38;95896.28;5076775;28;1020;-48
2022/03/17 03:57:20;;;;;;;;;;;;;;;5.91;82.17;95896.56;5076606;28;1098;-49
2022/03/17 03:59:47;;;;;;;;;;;;;;;5.85;83.14;95892.56;5076523;28;995;-48
2022/03/17 04:02:13;;;;;;;;;;;;;;;5.78;83.86;95898.44;5076734;28;1051;-48
2022/03/17 04:04:40;;;;;;;;;;;;;;;5.77;83.90;95910.03;5076845;28;1906;-48
2022/03/17 04:07:08;;;;;;;;;;;;;;;5.68;84.44;95909.72;5076336;28;1023;-48
2022/03/17 04:09:38;;;;;;;;;;;;;;;5.72;84.26;95899.72;5076264;28;1107;-48
2022/03/17 04:12:04;;;;;;;;;;;;;;;5.74;84.23;95896.97;5076032;28;1020;-49
2022/03/17 04:14:31;;;;;;;;;;;;;;;5.60;85.12;95903.28;5076406;28;992;-48
2022/03/17 04:16:58;;;;;;;;;;;;;;;5.48;86.04;95907.66;5076210;28;1028;-49
2022/03/17 04:19:24;;;;;;;;;;;;;;;5.43;86.59;95904.53;5076139;28;972;-48
2022/03/17 04:21:50;;;;;;;;;;;;;;;5.64;84.98;95910.91;5076128;28;996;-48
2022/03/17 04:24:17;;;;;;;;;;;;;;;5.75;84.51;95914.56;5076139;28;1021;-48
2022/03/17 04:26:44;;;;;;;;;;;;;;;5.86;83.96;95912.84;5076077;28;1971;-48
2022/03/17 04:29:11;;;;;;;;;;;;;;;5.84;84.26;95919.19;5076052;28;1028;-48
2022/03/17 04:31:37;;;;;;;;;;;;;;;5.93;83.85;95923.84;5075917;28;980;-48
2022/03/17 04:34:04;;;;;;;;;;;;;;;5.93;83.75;95936.25;5075832;28;1071;-48
2022/03/17 04:36:31;;;;;;;;;;;;;;;5.97;83.73;95935.09;5075952;28;1052;-48
2022/03/17 04:38:57;;;;;;;;;;;;;;;6.10;82.69;95940.34;5075808;28;1055;-48
2022/03/17 04:41:23;;;;;;;;;;;;;;;6.17;82.19;95930.97;5075665;28;1109;-49
2022/03/17 04:43:50;;;;;;;;;;;;;;;6.17;82.53;95941.59;5074399;28;1076;-49
2022/03/17 04:46:16;;;;;;;;;;;;;;;6.14;82.45;95949.78;5075649;28;1918;-49
2022/03/17 04:48:43;;;;;;;;;;;;;;;6.21;82.59;95943.06;5075772;28;1047;-49
2022/03/17 04:51:09;;;;;;;;;;;;;;;6.34;81.55;95941.16;5075668;28;1877;-48
2022/03/17 04:53:35;;;;;;;;;;;;;;;6.28;82.32;95943.44;5075678;28;1091;-48
2022/03/17 04:56:11;;;;;;;;;;;;;;;6.20;83.28;95941.34;5075203;28;1111;-48
2022/03/17 04:58:38;;;;;;;;;;;;;;;6.35;82.16;95936.69;5075515;28;1071;-48
2022/03/17 05:01:05;;;;;;;;;;;;;;;6.41;81.91;95944.19;5075303;28;1056;-48
2022/03/17 05:03:32;;;;;;;;;;;;;;;6.38;82.03;95942.63;5075409;28;1076;-48
2022/03/17 05:05:58;;;;;;;;;;;;;;;6.39;81.98;95946.13;5075110;28;1993;-48
2022/03/17 05:08:25;;;;;;;;;;;;;;;6.33;83.06;95962.53;5075341;28;1067;-48
2022/03/17 05:10:52;;;;;;;;;;;;;;;6.15;84.22;95951.50;5074963;28;1053;-49
2022/03/17 05:13:22;;;;;;;;;;;;;;;5.99;84.75;95954.41;5075283;28;1046;-49
2022/03/17 05:15:49;;;;;;;;;;;;;;;6.05;84.64;95962.78;5074984;28;1083;-49
2022/03/17 05:18:15;;;;;;;;;;;;;;;6.10;84.19;95967.75;5075164;28;1095;-49
2022/03/17 05:20:42;;;;;;;;;;;;;;;6.12;84.82;95975.59;5075205;28;1000;-48
2022/03/17 05:23:09;;;;;;;;;;;;;;;6.07;85.20;95978.63;5075191;28;1016;-49
2022/03/17 05:25:35;;;;;;;;;;;;;;;6.01;85.55;95979.03;5074894;28;1890;-48
2022/03/17 05:28:02;;;;;;;;;;;;;;;5.99;85.95;95991.59;5073830;28;1005;-48
2022/03/17 05:30:28;;;;;;;;;;;;;;;6.04;85.56;95987.63;5074812;28;1023;-48
2022/03/17 05:32:55;;;;;;;;;;;;;;;6.18;84.69;95993.72;5074791;28;1870;-49
2022/03/17 05:35:21;;;;;;;;;;;;;;;6.28;83.55;95997.41;5075082;28;1035;-49
2022/03/17 05:37:48;;;;;;;;;;;;;;;6.32;84.07;96001.53;5074738;28;1033;-48
2022/03/17 05:40:15;;;;;;;;;;;;;;;6.34;84.07;96006.75;5074773;28;980;-49
2022/03/17 05:42:43;;;;;;;;;;;;;;;6.25;85.05;96008.25;5074282;28;1081;-48
2022/03/17 05:45:09;;;;;;;;;;;;;;;6.24;85.28;96009.19;5074410;28;1984;-49
2022/03/17 05:47:37;;;;;;;;;;;;;;;6.27;85.01;96011.66;5073954;28;1068;-48
2022/03/17 05:50:04;;;;;;;;;;;;;;;6.18;85.39;96012.31;5074506;28;1024;-49
2022/03/17 05:52:31;;;;;;;;;;;;;;;6.12;86.06;96010.97;5074464;28;1221;-49
2022/03/17 05:54:57;;;;;;;;;;;;;;;6.05;86.26;96015.03;5074213;28;1039;-48
2022/03/17 05:57:23;;;;;;;;;;;;;;;6.08;86.31;96006.84;5074273;28;1099;-49
2022/03/17 05:59:49;;;;;;;;;;;;;;;6.02;86.44;96008.13;5074193;28;1020;-48
2022/03/17 06:02:16;;;;;;;;;;;;;;;6.02;86.90;96008.13;5074445;28;1031;-49
2022/03/17 06:04:42;;;;;;;;;;;;;;;6.00;87.31;96011.88;5074232;28;2004;-48
2022/03/17 06:07:08;;;;;;;;;;;;;;;6.04;86.84;96018.66;5074162;28;1058;-48
2022/03/17 06:09:34;;;;;;;;;;;;;;;6.10;86.54;96017.34;5074164;28;994;-48
2022/03/17 06:12:00;;;;;;;;;;;;;;;6.06;87.36;96020.22;5073766;28;973;-49
2022/03/17 06:14:27;;;;;;;;;;;;;;;6.10;87.12;96025.31;5074099;28;1007;-48
2022/03/17 06:16:53;;;;;;;;;;;;;;;6.11;86.16;96032.31;5074067;28;1027;-48
2022/03/17 06:19:19;;;;;;;;;;;;;;;6.10;86.17;96033.28;5074158;28;1053;-49
2022/03/17 06:21:45;;;;;;;;;;;;;;;6.11;86.09;96030.53;5073739;28;1067;-49
2022/03/17 06:24:11;;;;;;;;;;;;;;;6.21;84.33;96036.00;5073927;28;1035;-49
2022/03/17 06:26:37;;;;;;;;;;;;;;;6.23;84.45;96036.75;5073724;28;1985;-48
2022/03/17 06:29:03;;;;;;;;;;;;;;;6.20;83.61;96036.94;5072556;28;1036;-48
2022/03/17 06:31:30;;;;;;;;;;;;;;;6.14;84.11;96027.63;5073857;28;1003;-49
2022/03/17 06:33:56;;;;;;;;;;;;;;;6.34;83.18;96038.63;5073619;28;1044;-49
2022/03/17 06:36:22;;;;;;;;;;;;;;;6.41;83.45;96045.16;5073759;28;1047;-48
2022/03/17 06:38:48;;;;;;;;;;;;;;;6.36;84.19;96042.00;5073463;28;1020;-49
2022/03/17 06:41:14;;;;;;;;;;;;;;;6.43;83.55;96046.75;5073496;28;1230;-49
2022/03/17 06:43:40;;;;;;;;;;;;;;;6.47;82.62;96046.50;5073196;28;988;-48
2022/03/17 06:46:08;;;;;;;;;;;;;;;6.48;82.86;96050.88;5073392;28;1993;-49
2022/03/17 06:48:34;;;;;;;;;;;;;;;6.60;82.13;96055.25;5073381;28;1039;-49
2022/03/17 06:51:00;;;;;;;;;;;;;;;6.59;81.69;96056.22;5073356;28;1202;-48
2022/03/17 06:53:26;;;;;;;;;;;;;;;6.43;82.84;96065.34;5073289;28;1043;-49
2022/03/17 06:55:53;;;;;;;;;;;;;;;6.50;81.72;96064.88;5073506;28;1181;-49
2022/03/17 06:58:19;;;;;;;;;;;;;;;6.55;81.72;96068.91;5073035;28;984;-49
2022/03/17 07:00:45;;;;;;;;;;;;;;;6.58;81.73;96076.66;5072666;28;1135;-48
2022/03/17 07:03:11;;;;;;;;;;;;;;;6.62;82.09;96069.28;5073166;28;1096;-49
2022/03/17 07:05:37;;;;;;;;;;;;;;;6.61;80.59;96076.41;5073423;28;1981;-49
2022/03/17 07:08:03;;;;;;;;;;;;;;;6.71;80.54;96087.19;5072953;28;1178;-49
2022/03/17 07:10:29;;;;;;;;;;;;;;;6.82;80.53;96076.59;5073316;28;1036;-49
2022/03/17 07:12:55;;;;;;;;;;;;;;;6.96;80.11;96077.38;5072788;28;1032;-49
2022/03/17 07:15:21;;;;;;;;;;;;;;;6.99;80.40;96082.47;5073257;28;1100;-48
2022/03/17 07:17:47;;;;;;;;;;;;;;;7.02;79.36;96083.09;5073137;28;1044;-49
2022/03/17 07:20:15;;;;;;;;;;;;;;;6.92;79.64;96082.06;5073359;28;1033;-49
2022/03/17 07:22:46;;;;;;;;;;;;;;;7.08;81.32;96094.22;5072967;28;1035;-49
2022/03/17 07:25:12;;;;;;;;;;;;;;;7.14;79.61;96083.13;5073123;28;1907;-49
2022/03/17 07:27:43;;;;;;;;;;;;;;;7.18;79.49;96088.06;5072933;28;973;-49
2022/03/17 07:30:11;;;;;;;;;;;;;;;7.12;80.38;96095.69;5073072;28;1096;-48
2022/03/17 07:32:38;;;;;;;;;;;;;;;7.18;79.96;96090.72;5072899;28;1048;-48
2022/03/17 07:35:04;;;;;;;;;;;;;;;7.15;79.84;96098.97;5073131;28;972;-48
2022/03/17 07:37:30;;;;;;;;;;;;;;;7.15;79.51;96104.28;5071815;28;1049;-48
2022/03/17 07:39:56;;;;;;;;;;;;;;;7.09;79.47;96109.22;5071620;28;1031;-48
2022/03/17 07:42:22;;;;;;;;;;;;;;;7.04;80.22;96107.75;5072537;28;1081;-49
2022/03/17 07:44:48;;;;;;;;;;;;;;;7.18;79.88;96104.03;5073075;28;1973;-49
2022/03/17 07:47:15;;;;;;;;;;;;;;;7.27;78.92;96102.50;5071761;28;1936;-48
2022/03/17 07:49:41;;;;;;;;;;;;;;;7.36;78.61;96107.13;5072749;28;1071;-49
2022/03/17 07:52:07;;;;;;;;;;;;;;;7.39;78.08;96116.66;5072828;28;1170;-49
2022/03/17 07:54:33;;;;;;;;;;;;;;;7.31;77.92;96116.41;5072639;28;1039;-49
2022/03/17 07:57:00;;;;;;;;;;;;;;;7.20;78.01;96119.88;5072674;28;980;-49
2022/03/17 07:59:27;;;;;;;;;;;;;;;7.16;78.18;96119.25;5072875;28;1044;-49
2022/03/17 08:01:53;;;;;;;;;;;;;;;7.22;76.73;96123.28;5072729;28;1171;-49
2022/03/17 08:04:19;;;;;;;;;;;;;;;7.17;77.02;96122.75;5072731;28;992;-49
2022/03/17 08:06:45;;;;;;;;;;;;;;;7.20;77.31;96133.19;5072590;28;1988;-49
2022/03/17 08:09:11;;;;;;;;;;;;;;;7.28;76.45;96124.63;5072950;28;1032;-49
2022/03/17 08:11:38;;;;;;;;;;;;;;;7.42;75.32;96119.09;5075238;28;1044;-49
2022/03/17 08:14:04;;;;;;;;;;;;;;;7.39;75.70;96117.50;5076207;28;957;-49
2022/03/17 08:16:30;;;;;;;;;;;;;;;7.36;76.21;96125.75;5076395;28;1079;-48
2022/03/17 08:18:56;;;;;;;;;;;;;;;7.35;77.03;96125.84;5076100;28;1013;-49
2022/03/17 08:21:22;;;;;;;;;;;;;;;7.41;75.98;96126.22;5076443;28;964;-49
2022/03/17 08:23:48;;;;;;;;;;;;;;;7.27;75.51;96126.44;5075950;28;1023;-49
2022/03/17 08:26:14;;;;;;;;;;;;;;;7.33;74.50;96125.97;5075968;28;1990;-49
2022/03/17 08:28:40;;;;;;;;;;;;;;;7.39;74.43;96117.50;5076278;28;1040;-49
2022/03/17 08:31:06;;;;;;;;;;;;;;;7.39;74.52;96114.00;5076040;28;1949;-48
2022/03/17 08:33:34;;;;;;;;;;;;;;;7.45;73.56;96116.19;5076000;28;1100;-49
2022/03/17 08:36:00;;;;;;;;;;;;;;;7.61;72.28;96121.19;5075894;28;1019;-48
2022/03/17 08:38:26;;;;;;;;;;;;;;;7.53;73.28;96120.91;5075872;28;948;-49
2022/03/17 08:40:53;;;;;;;;;;;;;;;7.62;73.98;96123.69;5075707;28;1122;-49
2022/03/17 08:43:19;;;;;;;;;;;;;;;7.78;72.84;96125.19;5075535;28;1081;-48
2022/03/17 08:51:13;;;;;;;;;;;;;;;7.85;70.64;96131.72;5075717;28;1220;-48
2022/03/17 08:53:39;;;;;;;;;;;;;;;7.77;70.39;96134.97;5075757;28;976;-48
2022/03/17 08:56:06;;;;;;;;;;;;;;;7.67;69.67;96131.34;5075763;28;980;-48
2022/03/17 08:58:34;;;;;;;;;;;;;;;7.70;70.03;96132.91;5075693;28;1021;-49
2022/03/17 09:01:00;;;;;;;;;;;;;;;7.76;71.18;96138.63;5075520;28;1025;-48
2022/03/17 09:03:29;;;;;;;;;;;;;;;7.81;70.32;96141.75;5075418;28;1071;-48
2022/03/17 09:05:58;;;;;;;;;;;;;;;8.02;70.64;96151.69;5075203;28;1911;-49
2022/03/17 09:08:25;;;;;;;;;;;;;;;8.12;70.80;96144.69;5075595;28;961;-49
2022/03/17 09:10:51;;;;;;;;;;;;;;;8.07;72.61;96148.69;5075377;28;1051;-49
2022/03/17 09:13:17;;;;;;;;;;;;;;;8.17;69.80;96152.31;5075296;28;965;-48
2022/03/17 09:15:43;;;;;;;;;;;;;;;8.21;69.35;96153.75;5075294;28;994;-48
2022/03/17 09:18:10;;;;;;;;;;;;;;;8.17;70.26;96158.47;5075263;28;1028;-48
2022/03/17 09:20:37;;;;;;;;;;;;;;;8.18;68.69;96159.34;5073753;28;1949;-48
2022/03/17 09:23:03;;;;;;;;;;;;;;;8.10;71.10;96169.72;5074297;28;1016;-48
2022/03/17 09:25:30;;;;;;;;;;;;;;;8.07;71.14;96176.16;5074895;28;1909;-49
2022/03/17 09:27:56;;;;;;;;;;;;;;;7.93;71.68;96179.03;5075173;28;952;-48
2022/03/17 09:33:45;;;;;;;;;;;;;;;8.01;72.48;96182.81;5075179;28;734;-48
2022/03/17 09:36:11;;;;;;;;;;;;;;;7.91;72.75;96194.28;5073608;28;1096;-48
2022/03/17 09:38:37;;;;;;;;;;;;;;;7.79;73.10;96182.78;5074812;28;1031;-49
2022/03/17 09:41:23;;;;;;;;;;;;;;;7.57;71.61;96195.09;5074658;28;988;-48
2022/03/17 09:43:49;;;;;;;;;;;;;;;7.41;72.71;96191.91;5074524;28;1053;-48
2022/03/17 09:46:15;;;;;;;;;;;;;;;7.50;71.92;96195.69;5074576;28;1985;-53
2022/03/17 09:48:42;;;;;;;;;;;;;;;7.43;72.28;96193.47;5074870;28;969;-48
2022/03/17 09:51:08;;;;;;;;;;;;;;;7.55;72.23;96190.84;5074328;28;1158;-48
2022/03/17 09:53:35;;;;;;;;;;;;;;;7.69;71.58;96192.47;5074598;28;1040;-51
2022/03/17 09:56:01;;;;;;;;;;;;;;;7.92;70.94;96199.50;5074433;28;1007;-49
2022/03/17 09:58:27;;;;;;;;;;;;;;;7.92;69.73;96199.50;5074865;28;996;-49
2022/03/17 10:00:53;;;;;;;;;;;;;;;7.80;68.99;96193.31;5074435;28;972;-48
2022/03/17 10:03:19;;;;;;;;;;;;;;;7.77;70.36;96203.34;5075204;28;1079;-48
2022/03/17 10:05:46;;;;;;;;;;;;;;;7.75;70.13;96192.81;5073368;28;1913;-48
2022/03/17 10:08:13;;;;;;;;;;;;;;;7.55;71.13;96190.84;5074238;28;1088;-48
2022/03/17 10:10:40;;;;;;;;;;;;;;;7.62;70.52;96203.56;5074128;28;988;-48
2022/03/17 10:13:14;;;;;;;;;;;;;;;7.60;69.90;96202.81;5074340;28;1031;-48
2022/03/17 10:15:41;;;;;;;;;;;;;;;7.65;68.39;96199.00;5074231;28;957;-48
2022/03/17 10:18:23;;;;;;;;;;;;;;;7.54;68.73;96205.13;5073177;28;2027;-48
2022/03/17 10:21:05;;;;;;;;;;;;;;;7.53;69.25;96203.41;5073826;28;983;-48
2022/03/17 10:23:31;;;;;;;;;;;;;;;7.50;69.29;96199.19;5073888;28;1075;-48
2022/03/17 10:25:57;;;;;;;;;;;;;;;7.66;69.08;96208.66;5073634;28;1906;-49
2022/03/17 10:28:26;;;;;;;;;;;;;;;7.38;68.71;96208.94;5073861;28;1000;-49
2022/03/17 10:31:05;;;;;;;;;;;;;;;7.34;69.03;96210.16;5073793;28;967;-48
2022/03/17 10:33:32;;;;;;;;;;;;;;;7.49;67.83;96212.59;5073678;28;1111;-48
2022/03/17 10:36:15;;;;;;;;;;;;;;;7.40;67.84;96217.66;5073286;28;1040;-48
2022/03/17 10:38:45;;;;;;;;;;;;;;;7.54;68.63;96224.59;5073715;28;1237;-48
2022/03/17 10:41:12;;;;;;;;;;;;;;;7.64;68.07;96224.75;5073496;28;1105;-49
2022/03/17 10:43:39;;;;;;;;;;;;;;;7.60;67.99;96225.94;5073487;28;1100;-49
2022/03/17 10:46:06;;;;;;;;;;;;;;;7.58;67.20;96220.72;5073291;28;1986;-49
2022/03/17 10:48:32;;;;;;;;;;;;;;;7.45;66.37;96230.59;5073565;28;968;-48
2022/03/17 10:50:58;;;;;;;;;;;;;;;7.35;67.08;96235.78;5073368;28;1165;-49
2022/03/17 10:53:28;;;;;;;;;;;;;;;7.47;66.65;96233.16;5073744;28;1014;-48
2022/03/17 10:56:08;;;;;;;;;;;;;;;7.34;66.89;96231.44;5073341;28;968;-49
2022/03/17 10:58:41;;;;;;;;;;;;;;;7.47;67.21;96230.50;5073535;28;1045;-49
2022/03/17 11:01:07;;;;;;;;;;;;;;;7.50;67.24;96224.97;5073435;28;1047;-48
2022/03/17 11:03:33;;;;;;;;;;;;;;;7.49;66.86;96234.72;5073581;28;1031;-48
2022/03/17 11:05:59;;;;;;;;;;;;;;;7.56;66.52;96230.66;5073039;28;1914;-49
2022/03/17 11:08:26;;;;;;;;;;;;;;;7.69;66.33;96224.41;5073339;28;1041;-49
2022/03/17 11:10:52;;;;;;;;;;;;;;;7.83;67.15;96229.50;5073115;28;1047;-48
2022/03/17 11:13:19;;;;;;;;;;;;;;;8.09;66.49;96219.50;5073103;28;1144;-48
2022/03/17 11:15:48;;;;;;;;;;;;;;;7.98;66.27;96224.81;5073039;28;1059;-48
2022/03/17 11:18:16;;;;;;;;;;;;;;;7.84;66.48;96220.56;5073510;28;1024;-48
2022/03/17 11:20:42;;;;;;;;;;;;;;;7.83;66.44;96226.84;5073239;28;1029;-48
2022/03/17 11:23:11;;;;;;;;;;;;;;;7.86;66.54;96223.13;5073046;28;1019;-48
2022/03/17 11:25:37;;;;;;;;;;;;;;;7.70;65.86;96218.09;5073191;28;1906;-48
2022/03/17 11:28:04;;;;;;;;;;;;;;;7.74;67.70;96217.75;5072800;28;1071;-48
2022/03/17 11:30:44;;;;;;;;;;;;;;;7.81;66.38;96215.47;5072230;28;1043;-48
2022/03/17 11:33:23;;;;;;;;;;;;;;;8.06;65.82;96221.56;5073079;28;976;-48
2022/03/17 11:35:54;;;;;;;;;;;;;;;8.18;66.16;96217.94;5072946;28;1031;-48
2022/03/17 11:38:23;;;;;;;;;;;;;;;8.33;64.74;96214.06;5073015;28;1011;-48
2022/03/17 11:41:10;;;;;;;;;;;;;;;8.16;65.67;96210.06;5072893;28;1087;-48
2022/03/17 11:43:42;;;;;;;;;;;;;;;8.21;65.98;96215.03;5065439;28;2088;-48
2022/03/17 11:46:09;;;;;;;;;;;;;;;8.08;65.95;96220.50;5074903;28;1910;-48
2022/03/17 11:48:35;;;;;;;;;;;;;;;7.96;65.30;96219.59;5076846;28;1041;-47
2022/03/17 11:51:05;;;;;;;;;;;;;;;7.92;65.04;96212.81;5076654;28;1162;-47
2022/03/17 11:53:57;;;;;;;;;;;;;;;7.88;64.35;96218.53;5076870;28;1047;-48
2022/03/17 11:56:40;;;;;;;;;;;;;;;8.01;65.37;96208.59;5075616;28;1380;-48
2022/03/17 11:59:07;;;;;;;;;;;;;;;8.26;65.06;96212.84;5076688;28;1048;-48
2022/03/17 12:01:40;;;;;;;;;;;;;;;8.15;64.86;96210.19;5076491;28;1056;-48
2022/03/17 12:04:07;;;;;;;;;;;;;;;8.06;65.44;96210.91;5076808;28;996;-48
2022/03/17 12:06:34;;;;;;;;;;;;;;;8.02;65.07;96211.16;5076526;28;1891;-48
2022/03/17 12:09:13;;;;;;;;;;;;;;;8.08;64.89;96214.28;5076443;28;1024;-48
2022/03/17 12:11:44;;;;;;;;;;;;;;;8.13;64.75;96217.44;5076468;28;1043;-48
2022/03/17 12:16:42;;;;;;;;;;;;;;;8.10;64.20;96212.34;5076556;28;977;-48
2022/03/17 12:19:08;;;;;;;;;;;;;;;8.08;64.10;96220.50;5076201;28;1000;-48
2022/03/17 12:21:52;;;;;;;;;;;;;;;8.00;64.76;96214.88;5076328;28;1008;-48
2022/03/17 12:24:45;;;;;;;;;;;;;;;7.97;64.72;96217.81;5076301;28;945;-48
2022/03/17 12:27:17;;;;;;;;;;;;;;;8.21;63.44;96209.69;5075020;28;1688;-48
2022/03/17 12:29:44;;;;;;;;;;;;;;;8.33;63.87;96213.25;5076169;28;1020;-48
2022/03/17 12:32:17;;;;;;;;;;;;;;;8.44;64.09;96201.72;5076197;28;1035;-49
2022/03/17 12:34:54;;;;;;;;;;;;;;;8.50;62.26;96199.44;5076105;28;1028;-48
2022/03/17 12:37:22;;;;;;;;;;;;;;;8.44;62.94;96207.06;5075920;28;1186;-48
2022/03/17 12:40:03;;;;;;;;;;;;;;;8.38;63.44;96205.69;5076075;28;1032;-48
2022/03/17 12:42:30;;;;;;;;;;;;;;;8.36;63.67;96208.47;5075601;28;1112;-47
2022/03/17 12:44:56;;;;;;;;;;;;;;;8.53;63.14;96204.50;5075851;28;1906;-48
2022/03/17 12:47:24;;;;;;;;;;;;;;;8.64;62.01;96209.00;5075701;28;953;-48
2022/03/17 12:49:51;;;;;;;;;;;;;;;8.63;62.21;96198.44;5075657;28;968;-48
2022/03/17 12:52:21;;;;;;;;;;;;;;;8.57;63.35;96203.31;5075619;28;1165;-48
2022/03/17 12:54:47;;;;;;;;;;;;;;;8.58;63.79;96204.16;5075525;28;1044;-48
2022/03/17 12:57:13;;;;;;;;;;;;;;;8.57;63.14;96205.97;5074478;28;969;-48
2022/03/17 12:59:39;;;;;;;;;;;;;;;8.78;62.07;96198.06;5075521;28;1024;-48
2022/03/17 13:02:06;;;;;;;;;;;;;;;8.73;62.53;96207.41;5075469;28;1869;-48
2022/03/17 13:04:36;;;;;;;;;;;;;;;8.81;61.46;96201.47;5075546;28;1052;-48
2022/03/17 13:07:05;;;;;;;;;;;;;;;8.88;62.21;96205.28;5075477;28;1906;-48
2022/03/17 13:09:32;;;;;;;;;;;;;;;8.59;62.82;96212.03;5075313;28;1036;-48
2022/03/17 13:15:09;;;;;;;;;;;;;;;8.13;63.72;96217.44;5064929;28;1276;-48
2022/03/17 13:17:39;;;;;;;;;;;;;;;8.13;63.46;96210.28;5075559;28;1005;-48
2022/03/17 13:20:10;;;;;;;;;;;;;;;8.10;63.05;96210.56;5075254;28;1038;-48
2022/03/17 13:22:39;;;;;;;;;;;;;;;7.98;63.96;96225.66;5075250;28;996;-48
2022/03/17 13:25:10;;;;;;;;;;;;;;;7.78;64.51;96224.53;5074963;28;1902;-48
2022/03/17 13:27:38;;;;;;;;;;;;;;;7.76;64.47;96222.97;5075345;28;1016;-48
2022/03/17 13:30:12;;;;;;;;;;;;;;;7.71;64.25;96227.81;5074861;28;1832;-48
2022/03/17 13:32:39;;;;;;;;;;;;;;;7.67;64.71;96229.00;5075206;28;989;-48
2022/03/17 13:35:07;;;;;;;;;;;;;;;7.63;64.97;96231.03;5074692;28;999;-48